createdAt,value
2022-11-08T05:17:38.597Z,89.48
2022-11-08T05:20:24.749Z,91.69
2022-11-08T05:23:09.647Z,90.87
2022-11-08T05:25:40.197Z,89.71
2022-11-08T05:28:06.735Z,88.81
2022-11-08T05:30:33.149Z,89.10
2022-11-08T05:32:59.610Z,88.24
2022-11-08T05:35:26.122Z,87.77
2022-11-08T05:37:52.611Z,88.04
2022-11-08T05:40:19.093Z,87.67
2022-11-08T05:42:45.520Z,87.36
2022-11-08T05:45:12.014Z,86.66
2022-11-08T05:47:43.998Z,89.32
2022-11-08T05:50:12.381Z,88.28
2022-11-08T05:52:48.998Z,88.34
2022-11-08T05:55:15.583Z,88.00
2022-11-08T05:57:43.584Z,88.13
2022-11-08T06:00:11.816Z,89.90
2022-11-08T06:02:38.908Z,89.70
2022-11-08T06:05:06.802Z,88.70
2022-11-08T06:07:33.656Z,88.40
2022-11-08T06:10:00.301Z,89.19
2022-11-08T06:12:30.857Z,90.00
2022-11-08T06:14:57.391Z,89.92
2022-11-08T06:17:26.249Z,91.50
2022-11-08T06:19:56.713Z,90.60
2022-11-08T06:22:26.289Z,91.67
2022-11-08T06:24:52.840Z,91.33
2022-11-08T06:27:19.319Z,91.39
2022-11-08T06:29:45.797Z,91.09
2022-11-08T06:32:12.269Z,91.97
2022-11-08T06:34:38.783Z,91.53
2022-11-08T06:37:05.485Z,90.87
2022-11-08T06:39:32.042Z,90.17
2022-11-08T06:41:59.132Z,89.70
2022-11-08T06:44:25.753Z,89.72
2022-11-08T06:46:55.605Z,90.44
2022-11-08T06:49:23.811Z,90.19
2022-11-08T06:51:51.538Z,89.56
2022-11-08T06:54:21.081Z,89.15
2022-11-08T06:56:49.991Z,88.80
2022-11-08T06:59:16.535Z,88.39
2022-11-08T07:01:45.586Z,87.73
2022-11-08T07:04:12.462Z,87.37
2022-11-08T07:06:38.921Z,88.06
2022-11-08T07:09:05.364Z,88.48
2022-11-08T07:11:31.840Z,89.15
2022-11-08T07:13:58.310Z,89.71
2022-11-08T07:16:24.795Z,89.67
2022-11-08T07:18:52.214Z,88.47
2022-11-08T07:21:18.810Z,88.93
2022-11-08T07:23:45.264Z,88.81
2022-11-08T07:27:01.463Z,88.54
2022-11-08T07:29:27.926Z,91.23
2022-11-08T07:31:57.295Z,90.97
2022-11-08T07:35:22.629Z,90.90
2022-11-08T07:38:15.732Z,90.22
2022-11-08T07:40:44.311Z,88.93
2022-11-08T07:43:12.578Z,88.28
2022-11-08T07:45:40.401Z,88.25
2022-11-08T07:48:32.798Z,88.63
2022-11-08T07:50:59.411Z,88.38
2022-11-08T07:53:25.955Z,88.05
2022-11-08T07:55:53.230Z,87.95
2022-11-08T07:58:19.703Z,87.78
2022-11-08T08:00:51.717Z,88.11
2022-11-08T08:03:45.274Z,87.24
2022-11-08T08:06:11.706Z,87.19
2022-11-08T08:08:39.110Z,88.58
2022-11-08T08:11:05.728Z,88.92
2022-11-08T08:13:32.204Z,88.97
2022-11-08T08:16:00.727Z,89.08
2022-11-08T08:18:28.627Z,88.83
2022-11-08T08:20:55.129Z,89.30
2022-11-08T08:23:21.887Z,89.00
2022-11-08T08:25:48.405Z,88.78
2022-11-08T08:28:14.851Z,88.49
2022-11-08T08:30:41.392Z,88.20
2022-11-08T08:33:27.844Z,87.80
2022-11-08T08:36:27.099Z,86.89
2022-11-08T08:38:54.578Z,86.67
2022-11-08T08:41:25.974Z,85.74
2022-11-08T08:44:01.863Z,85.26
2022-11-08T08:46:32.991Z,85.90
2022-11-08T08:49:29.452Z,84.89
2022-11-08T08:51:55.946Z,84.84
2022-11-08T08:54:25.655Z,84.32
2022-11-08T08:56:55.772Z,83.77
2022-11-08T09:02:14.678Z,83.05
2022-11-08T09:04:42.217Z,83.34
2022-11-08T09:07:35.223Z,82.49
2022-11-08T09:10:01.746Z,82.21
2022-11-08T09:12:28.643Z,81.86
2022-11-08T09:14:55.370Z,81.54
2022-11-08T09:17:27.227Z,81.49
2022-11-08T09:19:57.207Z,81.51
2022-11-08T09:22:24.227Z,81.46
2022-11-08T09:25:26.913Z,81.36
2022-11-08T09:27:54.493Z,80.26
2022-11-08T09:30:20.969Z,79.92
2022-11-08T09:33:00.164Z,78.29
2022-11-08T09:35:27.602Z,76.96
2022-11-08T09:37:54.487Z,75.85
2022-11-08T09:41:24.766Z,74.87
2022-11-08T09:44:21.670Z,73.95
2022-11-08T09:46:54.582Z,73.03
2022-11-08T09:49:25.497Z,72.95
2022-11-08T09:51:52.356Z,72.66
2022-11-08T09:54:31.785Z,72.73
2022-11-08T09:57:04.341Z,71.96
2022-11-08T09:59:44.953Z,71.06
2022-11-08T10:02:23.776Z,71.46
2022-11-08T10:04:59.653Z,71.62
2022-11-08T10:08:03.229Z,71.70
2022-11-08T10:10:47.839Z,72.08
2022-11-08T10:13:36.207Z,73.08
2022-11-08T10:16:34.155Z,71.51
2022-11-08T10:19:34.732Z,71.56
2022-11-08T10:22:27.671Z,71.17
2022-11-08T10:25:01.712Z,70.46
2022-11-08T10:27:34.116Z,70.11
2022-11-08T10:30:05.098Z,69.12
2022-11-08T10:32:34.594Z,69.51
2022-11-08T10:35:25.224Z,68.97
2022-11-08T10:37:56.001Z,68.81
2022-11-08T10:44:42.700Z,66.49
2022-11-08T10:47:24.491Z,66.22
2022-11-08T10:49:52.233Z,67.08
2022-11-08T10:52:31.110Z,65.18
2022-11-08T10:54:59.496Z,66.71
2022-11-08T10:57:50.987Z,65.01
2022-11-08T11:00:20.484Z,64.50
2022-11-08T11:02:51.241Z,63.80
2022-11-08T11:05:23.715Z,64.07
2022-11-08T11:07:56.228Z,63.85
2022-11-08T11:10:38.953Z,64.10
2022-11-08T11:13:11.387Z,65.22
2022-11-08T11:15:52.367Z,64.66
2022-11-08T11:18:34.073Z,64.25
2022-11-08T11:21:05.059Z,64.93
2022-11-08T11:23:43.957Z,64.64
2022-11-08T11:33:59.601Z,65.43
2022-11-08T11:36:30.243Z,63.81
2022-11-08T11:39:22.271Z,64.41
2022-11-08T11:42:05.311Z,63.99
2022-11-08T11:44:58.265Z,63.63
2022-11-08T11:47:35.231Z,64.95
2022-11-08T11:50:12.498Z,64.77
2022-11-08T11:52:40.007Z,63.51
2022-11-08T11:55:07.189Z,63.44
2022-11-08T11:57:51.147Z,62.92
2022-11-08T12:00:17.974Z,62.33
2022-11-08T12:02:54.186Z,63.97
2022-11-08T12:05:36.021Z,62.07
2022-11-08T12:08:35.910Z,62.48
2022-11-08T12:11:24.077Z,64.07
2022-11-08T12:14:19.398Z,64.18
2022-11-08T12:16:53.517Z,62.90
2022-11-08T12:19:29.990Z,61.48
2022-11-08T12:22:07.598Z,61.44
2022-11-08T12:24:46.376Z,61.05
2022-11-08T12:27:36.417Z,61.48
2022-11-08T12:30:15.607Z,61.24
2022-11-08T12:32:52.205Z,61.38
2022-11-08T12:35:38.804Z,60.32
2022-11-08T12:38:34.313Z,58.93
2022-11-08T12:41:07.816Z,58.58
2022-11-08T12:43:43.461Z,57.81
2022-11-08T12:46:13.141Z,56.39
2022-11-08T12:48:58.683Z,55.68
2022-11-08T12:51:55.588Z,55.22
2022-11-08T12:54:29.589Z,54.84
2022-11-08T12:57:01.364Z,54.53
2022-11-08T12:59:48.481Z,52.85
2022-11-08T13:02:25.882Z,51.49
2022-11-08T13:04:56.067Z,51.03
2022-11-08T13:07:48.520Z,48.75
2022-11-08T13:10:34.592Z,46.03
2022-11-08T13:13:22.895Z,44.39
2022-11-08T13:16:16.185Z,43.95
2022-11-08T13:18:53.508Z,45.84
2022-11-08T13:21:25.902Z,46.57
2022-11-08T13:24:09.889Z,47.97
2022-11-08T13:26:44.597Z,47.23
2022-11-08T13:29:13.583Z,46.69
2022-11-08T13:32:17.831Z,47.41
2022-11-08T13:34:50.292Z,46.82
2022-11-08T13:37:48.301Z,46.01
2022-11-08T13:40:40.183Z,44.50
2022-11-08T13:43:25.014Z,43.91
2022-11-08T13:45:55.323Z,44.99
2022-11-08T13:48:25.263Z,45.70
2022-11-08T13:50:56.670Z,46.23
2022-11-08T13:53:29.207Z,47.48
2022-11-08T13:56:23.654Z,47.80
2022-11-08T13:58:50.161Z,48.48
2022-11-08T14:01:22.972Z,49.77
2022-11-08T14:03:54.457Z,50.56
2022-11-08T14:06:43.185Z,51.73
2022-11-08T14:09:41.970Z,50.08
2022-11-08T14:12:33.532Z,51.44
2022-11-08T14:15:18.835Z,51.27
2022-11-08T14:18:04.475Z,51.47
2022-11-08T14:20:34.989Z,52.92
2022-11-08T14:23:23.862Z,53.96
2022-11-08T14:25:56.869Z,55.58
2022-11-08T14:28:29.151Z,56.14
2022-11-08T14:35:55.371Z,56.07
2022-11-08T14:38:30.640Z,56.74
2022-11-08T14:41:02.609Z,58.01
2022-11-08T14:43:29.742Z,58.26
2022-11-08T14:46:30.502Z,58.86
2022-11-08T14:48:58.057Z,58.34
2022-11-08T14:51:25.976Z,58.53
2022-11-08T14:53:54.928Z,58.47
2022-11-08T14:56:26.629Z,58.24
2022-11-08T14:58:54.968Z,58.35
2022-11-08T15:01:27.564Z,58.49
2022-11-08T15:04:04.429Z,58.44
2022-11-08T15:06:42.066Z,58.70
2022-11-08T15:09:17.590Z,58.48
2022-11-08T15:11:55.230Z,58.37
2022-11-08T15:14:24.462Z,58.39
2022-11-08T15:16:57.460Z,58.60
2022-11-08T15:19:46.413Z,59.68
2022-11-08T15:22:25.716Z,59.65
2022-11-08T15:25:20.102Z,59.32
2022-11-08T15:27:54.569Z,59.07
2022-11-08T15:30:30.217Z,59.49
2022-11-08T15:32:58.018Z,59.50
2022-11-08T15:35:32.099Z,59.48
2022-11-08T15:38:02.246Z,58.82
2022-11-08T15:40:32.041Z,58.80
2022-11-08T15:43:00.056Z,58.76
2022-11-08T15:45:33.193Z,59.05
2022-11-08T15:48:13.171Z,59.80
2022-11-08T15:50:39.717Z,60.83
2022-11-08T15:53:06.616Z,60.97
2022-11-08T15:55:48.673Z,61.12
2022-11-08T15:58:20.371Z,62.00
2022-11-08T16:00:58.061Z,62.73
2022-11-08T16:03:24.735Z,63.60
2022-11-08T16:05:51.463Z,64.51
2022-11-08T16:08:20.454Z,64.72
2022-11-08T16:10:58.695Z,64.98
2022-11-08T16:13:31.605Z,64.27
2022-11-08T16:15:59.363Z,64.24
2022-11-08T16:18:26.516Z,64.23
2022-11-08T16:20:53.361Z,64.13
2022-11-08T16:23:23.000Z,63.86
2022-11-08T16:26:07.590Z,63.96
2022-11-08T16:28:53.898Z,63.96
2022-11-08T16:31:28.641Z,63.92
2022-11-08T16:34:02.174Z,64.40
2022-11-08T16:36:29.160Z,65.25
2022-11-08T16:38:57.684Z,65.49
2022-11-08T16:41:26.073Z,66.81
2022-11-08T16:43:52.814Z,67.01
2022-11-08T16:46:21.359Z,67.26
2022-11-08T16:48:56.695Z,67.55
2022-11-08T16:51:25.363Z,67.96
2022-11-08T16:53:52.759Z,68.09
2022-11-08T16:56:28.793Z,68.11
2022-11-08T16:59:16.856Z,68.47
2022-11-08T17:01:47.878Z,68.46
2022-11-08T17:04:14.623Z,69.18
2022-11-08T17:11:05.994Z,68.67
2022-11-08T17:13:37.544Z,68.56
2022-11-08T17:16:09.641Z,68.80
2022-11-08T17:18:36.143Z,68.25
2022-11-08T17:21:29.942Z,68.36
2022-11-08T17:23:54.688Z,68.80
2022-11-08T17:26:21.554Z,69.30
2022-11-08T17:28:48.047Z,69.24
2022-11-08T17:31:17.291Z,69.78
2022-11-08T17:33:43.849Z,70.09
2022-11-08T17:36:13.450Z,70.01
2022-11-08T17:38:41.719Z,70.23
2022-11-08T17:41:11.887Z,70.41
2022-11-08T17:43:39.298Z,70.84
2022-11-08T17:46:06.173Z,70.97
2022-11-08T17:48:33.386Z,70.78
2022-11-08T17:51:00.894Z,70.90
2022-11-08T17:53:27.900Z,71.31
2022-11-08T17:55:57.252Z,71.08
2022-11-08T17:58:24.218Z,71.13
2022-11-08T18:00:55.304Z,70.52
2022-11-08T18:03:22.832Z,70.47
2022-11-08T18:05:54.207Z,70.75
2022-11-08T18:08:26.518Z,70.65
2022-11-08T18:10:54.406Z,70.65
2022-11-08T18:13:21.717Z,70.31
2022-11-08T18:15:49.832Z,70.45
2022-11-08T18:18:16.944Z,70.66
2022-11-08T18:20:43.537Z,70.69
2022-11-08T18:23:22.762Z,71.32
2022-11-08T18:25:50.417Z,71.10
2022-11-08T18:28:17.433Z,71.36
2022-11-08T18:30:47.872Z,71.88
2022-11-08T18:33:15.805Z,72.53
2022-11-08T18:35:43.518Z,72.29
2022-11-08T18:38:11.070Z,71.92
2022-11-08T18:40:37.587Z,71.84
2022-11-08T18:43:04.159Z,72.04
2022-11-08T18:45:30.878Z,72.15
2022-11-08T18:47:57.326Z,72.46
2022-11-08T18:50:23.802Z,72.45
2022-11-08T18:52:50.392Z,72.47
2022-11-08T18:55:20.156Z,72.92
2022-11-08T18:57:46.682Z,72.74
2022-11-08T19:00:13.553Z,72.45
2022-11-08T19:02:39.976Z,72.50
2022-11-08T19:05:09.075Z,72.30
2022-11-08T19:07:35.583Z,73.03
2022-11-08T19:10:02.099Z,73.20
2022-11-08T19:12:31.647Z,73.12
2022-11-08T19:14:58.173Z,73.23
2022-11-08T19:17:25.748Z,73.24
2022-11-08T19:19:52.245Z,72.78
2022-11-08T19:22:18.698Z,72.34
2022-11-08T19:24:45.126Z,72.49
2022-11-08T19:27:17.903Z,72.59
2022-11-08T19:29:44.449Z,72.46
2022-11-08T19:32:11.017Z,72.45
2022-11-08T19:34:37.580Z,72.74
2022-11-08T19:37:07.540Z,73.09
2022-11-08T19:39:34.109Z,73.52
2022-11-08T19:42:00.635Z,74.13
2022-11-08T19:44:27.344Z,74.80
2022-11-08T19:46:53.915Z,75.24
2022-11-08T19:49:35.482Z,74.57
2022-11-08T19:52:04.066Z,74.80
2022-11-08T19:54:30.585Z,74.64
2022-11-08T19:57:05.746Z,75.54
2022-11-08T19:59:32.835Z,75.15
2022-11-08T20:01:59.920Z,75.08
2022-11-08T20:04:26.660Z,74.85
2022-11-08T20:06:53.241Z,74.68
2022-11-08T20:09:19.889Z,74.08
2022-11-08T20:11:55.593Z,73.82
2022-11-08T20:14:22.119Z,73.66
2022-11-08T20:16:53.256Z,74.19
2022-11-08T20:19:20.576Z,74.33
2022-11-08T20:21:47.210Z,74.48
2022-11-08T20:24:15.003Z,73.87
2022-11-08T20:26:42.351Z,73.30
2022-11-08T20:29:12.423Z,72.87
2022-11-08T20:31:42.280Z,72.53
2022-11-08T20:34:11.728Z,72.51
2022-11-08T20:36:38.967Z,72.99
2022-11-08T20:39:07.663Z,73.39
2022-11-08T20:41:36.924Z,73.39
2022-11-08T20:44:03.630Z,73.07
2022-11-08T20:46:32.295Z,73.10
2022-11-08T20:49:00.646Z,73.79
2022-11-08T20:51:28.559Z,72.22
2022-11-08T20:53:56.360Z,72.30
2022-11-08T20:56:23.671Z,72.08
2022-11-08T20:58:51.599Z,72.10
2022-11-08T21:01:20.824Z,71.87
2022-11-08T21:03:48.117Z,71.74
2022-11-08T21:06:17.606Z,71.85
2022-11-08T21:11:34.299Z,72.83
2022-11-08T21:14:01.471Z,72.12
2022-11-08T21:16:31.638Z,72.02
2022-11-08T21:19:01.817Z,72.38
2022-11-08T21:21:28.629Z,72.45
2022-11-08T21:23:55.231Z,72.56
2022-11-08T21:26:50.254Z,72.92
2022-11-08T21:29:16.840Z,72.92
2022-11-08T21:31:43.504Z,73.15
2022-11-08T21:34:10.046Z,74.02
2022-11-08T21:36:36.487Z,74.26
2022-11-08T21:39:03.082Z,75.46
2022-11-08T21:41:29.569Z,77.02
2022-11-08T21:43:56.079Z,78.13
2022-11-08T21:46:25.218Z,78.30
2022-11-08T21:48:59.570Z,79.81
2022-11-08T21:51:26.718Z,79.43
2022-11-08T21:53:55.690Z,78.93
2022-11-08T21:56:29.255Z,79.20
2022-11-08T21:58:56.233Z,78.81
2022-11-08T22:01:28.570Z,79.45
2022-11-08T22:03:56.798Z,78.48
2022-11-08T22:06:50.495Z,78.80
2022-11-08T22:09:17.189Z,79.00
2022-11-08T22:11:43.754Z,78.43
2022-11-08T22:14:10.254Z,78.12
2022-11-08T22:16:36.691Z,78.27
2022-11-08T22:19:05.224Z,78.01
2022-11-08T22:21:40.498Z,78.09
2022-11-08T22:24:13.429Z,78.44
2022-11-08T22:26:41.161Z,77.35
2022-11-08T22:29:07.717Z,78.38
2022-11-08T22:31:34.534Z,78.33
2022-11-08T22:34:01.159Z,78.68
2022-11-08T22:36:27.910Z,79.08
2022-11-08T22:38:55.090Z,78.92
2022-11-08T22:41:22.571Z,79.03
2022-11-08T22:43:49.788Z,78.53
2022-11-08T22:46:17.085Z,78.27
2022-11-08T22:48:43.582Z,78.76
2022-11-08T22:51:10.627Z,78.53
2022-11-08T22:53:37.143Z,77.72
2022-11-08T22:56:09.849Z,78.06
2022-11-08T22:58:38.361Z,78.54
